Time;durP1;ratioP1;P1;durP2;ratioP2;P2;SDS_P1;SDS_P2;PMS_P1;PMS_P2;Temp;Humidity;BMP_temperature;BMP_pressure;BME280_temperature;BME280_humidity;BME280_pressure;Samples;Min_cycle;Max_cycle;Signal;HPM_P1;HPM_P2
2023/08/12 00:00:29;;;;;;;65.72;27.65;;;21.40;99.90;;;;;;5053138;28;20290;-76
2023/08/12 00:02:55;;;;;;;77.15;28.67;;;21.40;99.90;;;;;;5051459;28;20210;-78
2023/08/12 00:05:21;;;;;;;71.15;29.70;;;21.40;99.90;;;;;;5053027;28;20519;-76
2023/08/12 00:07:46;;;;;;;139.40;35.28;;;21.40;99.90;;;;;;5052967;28;20201;-77
2023/08/12 00:10:12;;;;;;;81.47;29.92;;;21.50;99.90;;;;;;5052549;28;20198;-77
2023/08/12 00:12:39;;;;;;;63.13;30.42;;;21.50;99.90;;;;;;5051392;28;20644;-76
2023/08/12 00:15:06;;;;;;;141.63;36.55;;;21.50;99.90;;;;;;5053154;28;20663;-77
2023/08/12 00:17:32;;;;;;;68.88;29.65;;;21.50;99.90;;;;;;5053135;28;20586;-77
2023/08/12 00:19:59;;;;;;;54.28;28.58;;;21.50;99.90;;;;;;5055634;28;20209;-77
2023/08/12 00:22:25;;;;;;;69.30;29.70;;;21.50;99.90;;;;;;5053854;28;20163;-77
2023/08/12 00:24:51;;;;;;;116.68;33.33;;;21.50;99.90;;;;;;5053589;28;20721;-77
2023/08/12 00:27:17;;;;;;;62.55;28.92;;;21.50;99.90;;;;;;5054315;28;20184;-77
2023/08/12 00:29:43;;;;;;;141.07;36.65;;;21.40;99.90;;;;;;5053459;28;20174;-76
2023/08/12 00:32:09;;;;;;;209.75;42.05;;;21.30;99.90;;;;;;5053745;28;20181;-76
2023/08/12 00:34:35;;;;;;;70.90;33.50;;;21.20;99.90;;;;;;5055046;28;20194;-77
2023/08/12 00:37:00;;;;;;;84.90;31.63;;;21.20;99.90;;;;;;5055090;28;20648;-77
2023/08/12 00:39:26;;;;;;;212.65;43.80;;;21.10;99.90;;;;;;5058983;28;20195;-75
2023/08/12 00:41:52;;;;;;;174.10;38.08;;;21.00;99.90;;;;;;5059443;28;20179;-76
2023/08/12 00:44:18;;;;;;;137.10;36.05;;;21.00;99.90;;;;;;5059496;28;20244;-76
2023/08/12 00:46:44;;;;;;;92.85;30.10;;;21.10;99.90;;;;;;5055849;28;20529;-76
2023/08/12 00:49:11;;;;;;;121.53;33.60;;;21.10;99.90;;;;;;5053973;28;20175;-76
2023/08/12 00:51:41;;;;;;;57.63;27.15;;;21.10;99.90;;;;;;5052410;28;20179;-76
2023/08/12 00:54:08;;;;;;;97.40;28.90;;;21.10;99.90;;;;;;5054925;28;20282;-76
2023/08/12 00:56:35;;;;;;;117.20;29.58;;;21.10;99.90;;;;;;5052670;28;20185;-76
2023/08/12 00:59:04;;;;;;;44.97;22.60;;;21.00;99.90;;;;;;5053970;28;20199;-76
2023/08/12 01:01:30;;;;;;;248.80;40.38;;;21.00;99.90;;;;;;5053758;28;20163;-76
2023/08/12 01:03:56;;;;;;;100.90;26.95;;;21.00;99.90;;;;;;5055217;28;20728;-76
2023/08/12 01:06:23;;;;;;;33.95;18.73;;;21.00;99.90;;;;;;5055652;28;20593;-76
2023/08/12 01:08:48;;;;;;;130.80;28.30;;;21.10;99.90;;;;;;5055191;28;20656;-76
2023/08/12 01:11:26;;;;;;;61.03;23.42;;;21.10;99.90;;;;;;5054968;28;20183;-76
2023/08/12 01:13:56;;;;;;;37.28;21.88;;;21.00;99.90;;;;;;5055137;28;20206;-75
2023/08/12 01:16:23;;;;;;;66.03;24.55;;;21.00;99.90;;;;;;5054750;28;20201;-76
2023/08/12 01:18:49;;;;;;;119.82;28.70;;;21.00;99.90;;;;;;5054653;28;20572;-77
2023/08/12 01:21:17;;;;;;;49.38;22.85;;;21.00;99.90;;;;;;5055951;28;20167;-76
2023/08/12 01:23:43;;;;;;;48.63;24.10;;;21.00;99.90;;;;;;5055698;28;20187;-77
2023/08/12 01:26:09;;;;;;;52.90;23.65;;;21.00;99.90;;;;;;5054552;28;20182;-76
2023/08/12 01:28:34;;;;;;;59.40;23.80;;;21.00;99.90;;;;;;5053457;28;20171;-76
2023/08/12 01:31:14;;;;;;;167.77;33.50;;;21.00;99.90;;;;;;5052486;28;20629;-75
2023/08/12 01:34:19;;;;;;;55.90;25.42;;;21.10;99.90;;;;;;5054201;28;20236;-75
2023/08/12 01:36:50;;;;;;;40.92;24.52;;;21.00;99.90;;;;;;5052970;28;20175;-75
2023/08/12 01:39:18;;;;;;;86.25;29.02;;;21.00;99.90;;;;;;5053539;28;20198;-76
2023/08/12 01:41:44;;;;;;;105.32;29.80;;;21.00;99.90;;;;;;5051336;28;20193;-75
2023/08/12 01:44:10;;;;;;;71.60;28.42;;;21.10;99.90;;;;;;5052342;28;20558;-76
2023/08/12 01:46:36;;;;;;;72.07;26.65;;;21.10;99.90;;;;;;5050422;28;20167;-76
2023/08/12 01:49:01;;;;;;;66.15;27.25;;;21.10;99.90;;;;;;5052031;28;20194;-76
2023/08/12 01:51:29;;;;;;;82.75;29.20;;;21.10;99.90;;;;;;5051714;28;20167;-76
2023/08/12 01:53:54;;;;;;;57.80;27.15;;;21.20;99.90;;;;;;5051243;28;20191;-76
2023/08/12 01:56:20;;;;;;;44.05;26.02;;;21.20;99.90;;;;;;5049588;28;20244;-76
2023/08/12 01:58:45;;;;;;;73.35;27.38;;;21.30;99.90;;;;;;5050908;28;20205;-76
2023/08/12 02:01:11;;;;;;;58.90;27.55;;;21.30;99.90;;;;;;5049753;28;20214;-75
2023/08/12 02:03:37;;;;;;;51.42;27.88;;;21.20;99.90;;;;;;5051244;28;20171;-76
2023/08/12 02:06:02;;;;;;;51.55;26.80;;;21.20;99.90;;;;;;5054591;28;20181;-76
2023/08/12 02:08:28;;;;;;;52.25;27.65;;;21.10;99.90;;;;;;5058045;28;20166;-76
2023/08/12 02:10:53;;;;;;;51.50;28.15;;;21.10;99.90;;;;;;5056079;28;20233;-76
2023/08/12 02:13:19;;;;;;;50.17;27.00;;;21.00;99.90;;;;;;5056622;28;20179;-76
2023/08/12 02:15:44;;;;;;;56.72;26.70;;;20.90;99.90;;;;;;5057705;28;20543;-76
2023/08/12 02:18:10;;;;;;;63.25;28.27;;;20.90;99.90;;;;;;5056152;28;20182;-76
2023/08/12 02:20:36;;;;;;;61.25;28.65;;;20.80;99.90;;;;;;5057466;28;20198;-76
2023/08/12 02:23:01;;;;;;;59.65;29.17;;;20.90;99.90;;;;;;5056163;28;20273;-76
2023/08/12 02:25:27;;;;;;;60.22;28.83;;;20.80;99.90;;;;;;5057198;28;20196;-76
2023/08/12 02:27:52;;;;;;;62.83;27.95;;;20.90;99.90;;;;;;5057552;28;20171;-76
2023/08/12 02:30:18;;;;;;;50.55;27.27;;;20.90;99.90;;;;;;5058038;28;20261;-76
2023/08/12 02:32:43;;;;;;;60.85;29.30;;;20.90;99.90;;;;;;5057493;28;20179;-76
2023/08/12 02:35:10;;;;;;;53.17;28.35;;;20.90;99.90;;;;;;5057875;28;20648;-76
2023/08/12 02:37:36;;;;;;;62.08;29.83;;;20.90;99.90;;;;;;5056478;28;20614;-76
2023/08/12 02:40:04;;;;;;;64.97;30.50;;;20.90;99.90;;;;;;5056372;28;20293;-76
2023/08/12 02:42:30;;;;;;;53.35;29.08;;;20.90;99.90;;;;;;5057500;28;20224;-76
2023/08/12 02:44:56;;;;;;;55.47;28.38;;;21.00;99.90;;;;;;5056334;28;20206;-76
2023/08/12 02:47:21;;;;;;;59.50;27.95;;;21.00;99.90;;;;;;5057377;28;20174;-76
2023/08/12 02:49:47;;;;;;;56.30;28.70;;;21.00;99.90;;;;;;5057700;28;20257;-76
2023/08/12 02:52:14;;;;;;;66.53;29.13;;;21.00;99.90;;;;;;5057593;28;20178;-77
2023/08/12 02:54:39;;;;;;;50.47;27.40;;;21.10;99.90;;;;;;5058630;28;20190;-76
2023/08/12 02:57:05;;;;;;;53.35;27.13;;;21.10;99.90;;;;;;5057266;28;20190;-76
2023/08/12 02:59:30;;;;;;;49.40;28.92;;;21.00;99.90;;;;;;5057514;28;20211;-76
2023/08/12 03:01:56;;;;;;;52.22;28.38;;;21.00;99.90;;;;;;5057672;28;20171;-76
2023/08/12 03:04:22;;;;;;;49.75;27.65;;;21.00;99.90;;;;;;5057617;28;20259;-76
2023/08/12 03:06:48;;;;;;;64.45;28.17;;;21.00;99.90;;;;;;5057040;28;20650;-76
2023/08/12 03:09:13;;;;;;;57.80;29.35;;;20.90;99.90;;;;;;5055271;28;20178;-76
2023/08/12 03:11:39;;;;;;;67.45;29.92;;;21.00;99.90;;;;;;5056262;28;20190;-76
2023/08/12 03:14:07;;;;;;;64.80;29.55;;;21.00;99.90;;;;;;5057489;28;20248;-76
2023/08/12 03:16:33;;;;;;;55.83;27.80;;;21.00;99.90;;;;;;5055347;28;20633;-76
2023/08/12 03:18:59;;;;;;;65.93;27.90;;;21.00;99.90;;;;;;5052759;28;20206;-76
2023/08/12 03:21:24;;;;;;;49.47;27.70;;;21.00;99.90;;;;;;5053649;28;20167;-76
2023/08/12 03:23:50;;;;;;;61.33;27.38;;;21.00;99.90;;;;;;5053965;28;20266;-76
2023/08/12 03:26:15;;;;;;;39.95;25.23;;;21.00;99.90;;;;;;5054250;28;20566;-76
2023/08/12 03:28:41;;;;;;;47.90;26.27;;;21.00;99.90;;;;;;5052822;28;20334;-76
2023/08/12 03:31:06;;;;;;;49.15;24.20;;;21.00;99.90;;;;;;5052573;28;20187;-76
2023/08/12 03:33:33;;;;;;;50.33;24.58;;;20.90;99.90;;;;;;5053682;28;20507;-76
2023/08/12 03:35:59;;;;;;;44.78;23.85;;;20.90;99.90;;;;;;5052706;28;20207;-76
2023/08/12 03:38:24;;;;;;;42.15;23.38;;;20.90;99.90;;;;;;5052151;28;20210;-76
2023/08/12 03:40:50;;;;;;;49.80;24.80;;;20.90;99.90;;;;;;5053763;28;20534;-76
2023/08/12 03:43:16;;;;;;;49.53;24.90;;;20.80;99.90;;;;;;5053552;28;20660;-76
2023/08/12 03:45:45;;;;;;;53.00;26.23;;;20.80;99.90;;;;;;5053067;28;20542;-76
2023/08/12 03:48:11;;;;;;;47.55;24.33;;;20.70;99.90;;;;;;5052354;28;20589;-76
2023/08/12 03:50:38;;;;;;;46.78;25.48;;;20.60;99.90;;;;;;5054122;28;20702;-76
2023/08/12 03:53:04;;;;;;;50.35;27.27;;;20.60;99.90;;;;;;5053301;28;20224;-76
2023/08/12 03:55:31;;;;;;;52.95;27.17;;;20.50;99.90;;;;;;5053380;28;20278;-76
2023/08/12 03:57:58;;;;;;;48.70;27.83;;;20.50;99.90;;;;;;5053575;28;20534;-76
2023/08/12 04:00:23;;;;;;;62.42;28.85;;;20.50;99.90;;;;;;5052332;28;20206;-76
2023/08/12 04:02:49;;;;;;;52.53;27.10;;;20.50;99.90;;;;;;5053125;28;20171;-76
2023/08/12 04:05:14;;;;;;;59.35;29.15;;;20.50;99.90;;;;;;5053764;28;20667;-76
2023/08/12 04:07:40;;;;;;;58.35;29.27;;;20.50;99.90;;;;;;5053403;28;20203;-76
2023/08/12 04:10:06;;;;;;;66.47;29.83;;;20.60;99.90;;;;;;5053269;28;20190;-76
2023/08/12 04:12:32;;;;;;;67.80;30.70;;;20.60;99.90;;;;;;5052622;28;20596;-76
2023/08/12 04:14:57;;;;;;;66.03;31.40;;;20.60;99.90;;;;;;5052989;28;20202;-76
2023/08/12 04:17:23;;;;;;;68.75;31.65;;;20.60;99.90;;;;;;5053226;28;20198;-76
2023/08/12 04:19:49;;;;;;;64.40;31.65;;;20.70;99.90;;;;;;5053142;28;20755;-76
2023/08/12 04:22:15;;;;;;;70.93;32.38;;;20.70;99.90;;;;;;5052949;28;20193;-75
2023/08/12 04:24:40;;;;;;;64.35;32.22;;;20.70;99.90;;;;;;5053119;28;20601;-76
2023/08/12 04:27:06;;;;;;;58.22;32.00;;;20.60;99.90;;;;;;5052263;28;20175;-76
2023/08/12 04:29:31;;;;;;;53.55;30.52;;;20.60;99.90;;;;;;5052155;28;20615;-76
2023/08/12 04:31:57;;;;;;;57.30;30.50;;;20.50;99.90;;;;;;5052891;28;20171;-77
2023/08/12 04:34:23;;;;;;;60.35;30.52;;;20.50;99.90;;;;;;5053746;28;20321;-76
2023/08/12 04:36:48;;;;;;;46.42;29.60;;;20.40;99.90;;;;;;5053475;28;20186;-77
2023/08/12 04:39:14;;;;;;;55.90;30.67;;;20.40;99.90;;;;;;5053973;28;20202;-76
2023/08/12 04:41:39;;;;;;;53.53;31.05;;;20.40;99.90;;;;;;5053231;28;20190;-76
2023/08/12 04:44:05;;;;;;;54.17;31.02;;;20.40;99.90;;;;;;5053316;28;20187;-76
2023/08/12 04:46:31;;;;;;;62.38;31.65;;;20.50;99.90;;;;;;5053243;28;20185;-76
2023/08/12 04:48:57;;;;;;;57.22;30.27;;;20.40;99.90;;;;;;5053275;28;20175;-76
2023/08/12 04:51:23;;;;;;;54.97;30.30;;;20.50;99.90;;;;;;5053390;28;20488;-76
2023/08/12 04:53:48;;;;;;;53.70;30.50;;;20.40;99.90;;;;;;5052024;28;20199;-78
2023/08/12 04:56:14;;;;;;;54.75;30.60;;;20.40;99.90;;;;;;5053835;28;20224;-77
2023/08/12 04:58:39;;;;;;;54.50;29.73;;;20.40;99.90;;;;;;5053004;28;20721;-76
2023/08/12 05:01:05;;;;;;;54.17;30.23;;;20.40;99.90;;;;;;5053391;28;20178;-77
2023/08/12 05:03:31;;;;;;;52.28;30.08;;;20.50;99.90;;;;;;5053451;28;20170;-76
2023/08/12 05:05:56;;;;;;;51.33;30.58;;;20.60;99.90;;;;;;5053642;28;20187;-76
2023/08/12 05:08:22;;;;;;;50.83;27.20;;;20.60;99.90;;;;;;5053727;28;20249;-76
2023/08/12 05:10:48;;;;;;;55.15;29.67;;;20.60;99.90;;;;;;5054160;28;20644;-77
2023/08/12 05:13:14;;;;;;;46.58;27.80;;;20.70;99.90;;;;;;5054172;28;20178;-76
2023/08/12 05:15:40;;;;;;;41.97;26.77;;;20.60;99.90;;;;;;5051578;28;20672;-76
2023/08/12 05:18:06;;;;;;;40.30;25.88;;;20.70;99.90;;;;;;5052904;28;20178;-76
2023/08/12 05:20:32;;;;;;;41.50;26.20;;;20.70;99.90;;;;;;5052700;28;20202;-76
2023/08/12 05:22:58;;;;;;;44.10;23.97;;;20.80;99.90;;;;;;5052212;28;20170;-76
2023/08/12 05:25:23;;;;;;;36.40;23.23;;;20.70;99.90;;;;;;5052396;28;20312;-76
2023/08/12 05:27:50;;;;;;;39.17;24.63;;;20.70;99.90;;;;;;5051876;28;20171;-76
2023/08/12 05:30:15;;;;;;;33.50;20.95;;;20.70;99.90;;;;;;5051580;28;20713;-76
2023/08/12 05:32:41;;;;;;;33.97;21.42;;;20.70;99.90;;;;;;5051594;28;20187;-75
2023/08/12 05:35:07;;;;;;;31.50;20.45;;;20.60;99.90;;;;;;5051509;28;20191;-76
2023/08/12 05:37:33;;;;;;;29.30;20.13;;;20.60;99.90;;;;;;5051654;28;20678;-76
2023/08/12 05:39:58;;;;;;;27.83;18.95;;;20.60;99.90;;;;;;5050833;28;20242;-75
2023/08/12 05:42:24;;;;;;;32.30;20.17;;;20.60;99.90;;;;;;5050146;28;20562;-77
2023/08/12 05:44:49;;;;;;;31.80;19.67;;;20.50;99.90;;;;;;5050264;28;20226;-75
2023/08/12 05:47:15;;;;;;;23.65;18.80;;;20.40;99.90;;;;;;5051676;28;20209;-75
2023/08/12 05:49:42;;;;;;;29.23;20.08;;;20.50;99.90;;;;;;5051454;28;20183;-76
2023/08/12 05:52:07;;;;;;;32.13;22.07;;;20.40;99.90;;;;;;5050664;28;20197;-76
2023/08/12 05:54:33;;;;;;;28.75;21.30;;;20.50;99.90;;;;;;5050948;28;20676;-76
2023/08/12 05:56:59;;;;;;;32.50;21.95;;;20.50;99.90;;;;;;5050944;28;20262;-75
2023/08/12 05:59:25;;;;;;;32.53;22.20;;;20.50;99.90;;;;;;5050866;28;20206;-76
2023/08/12 06:01:50;;;;;;;34.50;21.42;;;20.40;99.90;;;;;;5050674;28;20435;-75
2023/08/12 06:04:16;;;;;;;33.60;21.65;;;20.40;99.90;;;;;;5050961;28;20210;-76
2023/08/12 06:06:42;;;;;;;27.85;21.13;;;20.40;99.90;;;;;;5049957;28;20232;-75
2023/08/12 06:09:07;;;;;;;35.92;22.50;;;20.40;99.90;;;;;;5050721;28;20217;-75
2023/08/12 06:11:33;;;;;;;33.50;22.55;;;20.30;99.90;;;;;;5049534;28;20229;-76
2023/08/12 06:13:59;;;;;;;39.83;24.33;;;20.30;99.90;;;;;;5050572;28;20273;-75
2023/08/12 06:16:24;;;;;;;36.05;23.10;;;20.30;99.90;;;;;;5050888;28;20518;-75
2023/08/12 06:18:50;;;;;;;35.83;24.52;;;20.20;99.90;;;;;;5050392;28;20273;-75
2023/08/12 06:21:16;;;;;;;38.20;24.80;;;20.30;99.90;;;;;;5049276;28;20178;-76
2023/08/12 06:23:41;;;;;;;43.13;24.88;;;20.30;99.90;;;;;;5050217;28;20187;-74
2023/08/12 06:26:07;;;;;;;40.45;25.00;;;20.30;99.90;;;;;;5050523;28;20171;-74
2023/08/12 06:28:32;;;;;;;44.47;26.03;;;20.20;99.90;;;;;;5050601;28;20651;-75
2023/08/12 06:30:58;;;;;;;40.85;26.08;;;20.20;99.90;;;;;;5050338;28;20225;-74
2023/08/12 06:33:24;;;;;;;44.38;25.25;;;20.20;99.90;;;;;;5050018;28;20159;-74
2023/08/12 06:35:51;;;;;;;40.47;25.17;;;20.30;99.90;;;;;;5048859;28;20207;-74
2023/08/12 06:38:16;;;;;;;43.73;24.70;;;20.30;99.90;;;;;;5050669;28;20193;-75
2023/08/12 06:40:42;;;;;;;35.37;22.93;;;20.30;99.90;;;;;;5050549;28;20217;-74
2023/08/12 06:43:08;;;;;;;28.90;21.00;;;20.40;99.90;;;;;;5050295;28;20261;-75
2023/08/12 06:45:34;;;;;;;28.35;20.45;;;20.40;99.90;;;;;;5050355;28;20183;-75
2023/08/12 06:48:01;;;;;;;28.08;19.70;;;20.40;99.90;;;;;;5050041;28;20186;-75
2023/08/12 06:50:27;;;;;;;30.20;21.55;;;20.60;99.90;;;;;;5050432;28;20175;-75
2023/08/12 06:52:53;;;;;;;28.63;19.83;;;20.70;99.90;;;;;;5053626;28;20171;-76
2023/08/12 06:55:19;;;;;;;32.15;19.27;;;20.90;99.90;;;;;;5054124;28;20237;-76
2023/08/12 06:57:45;;;;;;;22.75;16.40;;;21.10;99.90;;;;;;5053807;28;20178;-76
2023/08/12 07:00:11;;;;;;;20.98;15.65;;;21.20;99.90;;;;;;5053076;28;20198;-76
2023/08/12 07:02:37;;;;;;;16.95;13.30;;;21.30;99.90;;;;;;5052506;28;20221;-75
2023/08/12 07:05:03;;;;;;;16.23;12.15;;;21.30;99.90;;;;;;5053558;28;20684;-76
2023/08/12 07:07:28;;;;;;;14.52;11.05;;;21.40;99.90;;;;;;5052501;28;20175;-76
2023/08/12 07:09:54;;;;;;;12.15;9.88;;;21.40;99.90;;;;;;5052280;28;20205;-76
2023/08/12 07:12:20;;;;;;;10.65;8.80;;;21.20;99.90;;;;;;5053671;28;20179;-75
2023/08/12 07:14:45;;;;;;;10.90;9.68;;;21.20;99.90;;;;;;5053588;28;20194;-76
2023/08/12 07:17:11;;;;;;;10.25;8.95;;;21.20;99.90;;;;;;5053613;28;20203;-76
2023/08/12 07:19:36;;;;;;;11.18;9.52;;;21.20;99.90;;;;;;5053004;28;20246;-75
2023/08/12 07:22:02;;;;;;;9.95;8.70;;;21.30;99.90;;;;;;5053396;28;20175;-76
2023/08/12 07:24:28;;;;;;;10.38;8.02;;;21.20;99.90;;;;;;5053841;28;20182;-75
2023/08/12 07:26:53;;;;;;;10.05;9.02;;;21.10;99.90;;;;;;5053486;28;20170;-75
2023/08/12 07:29:20;;;;;;;8.63;7.82;;;21.10;99.90;;;;;;5051939;28;20637;-75
2023/08/12 07:31:46;;;;;;;9.23;8.07;;;21.00;99.90;;;;;;5051657;28;20269;-76
2023/08/12 07:34:13;;;;;;;9.40;8.40;;;21.00;99.90;;;;;;5053300;28;20274;-76
2023/08/12 07:36:40;;;;;;;10.35;8.43;;;20.90;99.90;;;;;;5053699;28;20810;-75
2023/08/12 07:39:06;;;;;;;8.82;7.93;;;20.80;99.90;;;;;;5051743;28;20207;-75
2023/08/12 07:41:32;;;;;;;9.13;7.65;;;20.80;99.90;;;;;;5053085;28;20229;-75
2023/08/12 07:43:57;;;;;;;10.13;7.88;;;20.70;99.90;;;;;;5052881;28;20707;-76
2023/08/12 07:46:23;;;;;;;8.43;7.63;;;20.80;99.90;;;;;;5053278;28;20710;-77
2023/08/12 07:48:49;;;;;;;11.35;7.50;;;20.80;99.90;;;;;;5052691;28;20213;-75
2023/08/12 07:51:15;;;;;;;8.55;7.22;;;20.80;99.90;;;;;;5053045;28;20233;-76
2023/08/12 07:53:40;;;;;;;8.95;7.75;;;20.80;99.90;;;;;;5052817;28;20281;-76
2023/08/12 07:56:06;;;;;;;9.90;6.95;;;20.90;99.90;;;;;;5052739;28;20765;-76
2023/08/12 07:58:31;;;;;;;7.50;6.72;;;20.90;99.90;;;;;;5053275;28;20209;-77
2023/08/12 08:00:57;;;;;;;8.05;6.95;;;21.00;99.90;;;;;;5053124;28;20167;-76
2023/08/12 08:03:23;;;;;;;8.25;6.95;;;21.00;99.90;;;;;;5051839;28;20208;-75
2023/08/12 08:05:48;;;;;;;7.68;6.50;;;21.00;99.90;;;;;;5052780;28;20546;-75
2023/08/12 08:08:14;;;;;;;7.88;6.38;;;21.10;99.90;;;;;;5052894;28;20174;-76
2023/08/12 08:10:39;;;;;;;8.15;6.25;;;21.30;99.90;;;;;;5052894;28;20185;-76
2023/08/12 08:13:05;;;;;;;7.15;6.40;;;21.50;99.90;;;;;;5053048;28;20258;-75
2023/08/12 08:15:31;;;;;;;9.70;6.25;;;21.60;99.90;;;;;;5051427;28;20284;-76
2023/08/12 08:17:56;;;;;;;7.00;6.07;;;21.70;99.90;;;;;;5052604;28;20178;-76
2023/08/12 08:20:22;;;;;;;8.43;5.20;;;21.90;99.90;;;;;;5052707;28;20207;-75
2023/08/12 08:22:48;;;;;;;6.45;5.53;;;21.90;99.90;;;;;;5052538;28;20568;-78
2023/08/12 08:25:13;;;;;;;5.70;5.15;;;21.90;99.90;;;;;;5050994;28;20570;-76
2023/08/12 08:27:39;;;;;;;8.60;5.13;;;21.80;99.90;;;;;;5052379;28;20651;-75
2023/08/12 08:30:06;;;;;;;5.55;5.05;;;21.80;99.90;;;;;;5052270;28;20294;-75
2023/08/12 08:32:32;;;;;;;8.10;4.28;;;21.80;99.90;;;;;;5047815;28;20179;-75
2023/08/12 08:34:58;;;;;;;5.03;4.63;;;21.60;99.90;;;;;;5050649;28;20195;-75
2023/08/12 08:37:24;;;;;;;5.15;4.75;;;21.60;99.90;;;;;;5052425;28;20177;-76
2023/08/12 08:39:49;;;;;;;4.68;3.85;;;21.50;99.90;;;;;;5052091;28;20203;-75
2023/08/12 08:42:15;;;;;;;5.30;4.82;;;21.40;99.90;;;;;;5050893;28;20723;-76
2023/08/12 08:44:42;;;;;;;7.72;4.85;;;21.30;99.90;;;;;;5051991;28;20591;-76
2023/08/12 08:47:08;;;;;;;4.70;4.30;;;21.30;99.90;;;;;;5050683;28;20206;-75
2023/08/12 08:49:35;;;;;;;7.72;4.82;;;21.30;99.90;;;;;;5050139;28;20228;-76
2023/08/12 08:52:01;;;;;;;8.23;4.60;;;21.50;99.90;;;;;;5051973;28;20175;-76
2023/08/12 08:54:28;;;;;;;5.22;4.35;;;21.60;99.90;;;;;;5052248;28;20640;-76
2023/08/12 08:56:53;;;;;;;4.85;4.28;;;21.60;99.90;;;;;;5051965;28;20198;-75
2023/08/12 08:59:21;;;;;;;6.55;4.93;;;21.60;99.90;;;;;;5050669;28;20244;-75
2023/08/12 09:01:51;;;;;;;5.15;4.70;;;21.60;99.90;;;;;;5051401;28;20171;-75
2023/08/12 09:04:18;;;;;;;4.90;4.40;;;21.70;99.90;;;;;;5051716;28;20221;-74
2023/08/12 09:06:44;;;;;;;5.88;5.38;;;22.10;99.90;;;;;;5052034;28;20167;-76
2023/08/12 09:09:13;;;;;;;5.38;4.82;;;22.70;99.90;;;;;;5051607;28;20547;-75
2023/08/12 09:11:40;;;;;;;4.60;4.10;;;23.30;99.90;;;;;;5050074;28;20222;-75
2023/08/12 09:14:06;;;;;;;4.18;3.72;;;23.50;99.90;;;;;;5049803;28;20291;-76
2023/08/12 09:16:32;;;;;;;4.93;3.70;;;23.80;99.90;;;;;;5051134;28;20608;-75
2023/08/12 09:18:58;;;;;;;3.75;3.40;;;24.00;99.90;;;;;;5051654;28;20239;-75
2023/08/12 09:21:24;;;;;;;3.47;3.17;;;24.30;99.90;;;;;;5050537;28;20312;-76
2023/08/12 09:23:50;;;;;;;3.45;3.22;;;24.80;99.90;;;;;;5051538;28;20270;-76
2023/08/12 09:26:18;;;;;;;2.85;2.63;;;25.20;99.90;;;;;;5051831;28;20677;-77
2023/08/12 09:28:45;;;;;;;3.03;2.80;;;25.20;99.90;;;;;;5051016;28;20238;-76
2023/08/12 09:31:26;;;;;;;2.92;2.63;;;25.20;99.90;;;;;;5050830;28;20170;-77
2023/08/12 09:33:52;;;;;;;2.88;2.67;;;25.20;99.90;;;;;;5051034;28;20197;-76
2023/08/12 09:36:18;;;;;;;2.92;2.72;;;25.10;99.90;;;;;;5051421;28;20171;-76
2023/08/12 09:38:47;;;;;;;3.28;3.08;;;25.00;99.90;;;;;;5051406;28;20218;-74
2023/08/12 09:41:13;;;;;;;2.47;2.33;;;24.90;99.90;;;;;;5051484;28;20198;-74
2023/08/12 09:43:42;;;;;;;2.88;2.67;;;25.00;99.90;;;;;;5051182;28;20191;-73
2023/08/12 09:46:15;;;;;;;2.45;2.30;;;25.20;99.90;;;;;;5050946;28;20169;-74
2023/08/12 09:48:41;;;;;;;2.50;2.40;;;25.40;99.90;;;;;;5051076;28;20174;-75
2023/08/12 09:51:08;;;;;;;2.30;2.10;;;25.60;99.90;;;;;;5051093;28;20166;-74
2023/08/12 09:53:34;;;;;;;2.65;2.45;;;25.70;99.90;;;;;;5049312;28;20167;-74
2023/08/12 09:56:07;;;;;;;2.55;2.35;;;25.80;99.90;;;;;;5049790;28;20250;-74
2023/08/12 09:58:36;;;;;;;2.63;2.42;;;25.70;99.90;;;;;;5051300;28;20167;-75
2023/08/12 10:01:03;;;;;;;2.78;2.58;;;25.60;99.90;;;;;;5051019;28;20583;-75
2023/08/12 10:03:30;;;;;;;3.78;2.50;;;25.40;99.90;;;;;;5051025;28;20274;-75
2023/08/12 10:05:56;;;;;;;2.72;2.53;;;25.40;99.90;;;;;;5051580;28;20169;-75
2023/08/12 10:08:22;;;;;;;3.05;2.92;;;25.20;99.90;;;;;;5051785;28;20258;-75
2023/08/12 10:10:48;;;;;;;3.15;2.63;;;25.10;99.90;;;;;;5050839;28;20224;-74
2023/08/12 10:13:14;;;;;;;2.88;2.67;;;24.90;99.90;;;;;;5051000;28;20202;-75
2023/08/12 10:15:41;;;;;;;2.53;2.33;;;24.60;99.90;;;;;;5050562;28;20202;-73
2023/08/12 10:18:08;;;;;;;2.67;2.47;;;24.40;99.90;;;;;;5052375;28;20277;-74
2023/08/12 10:20:36;;;;;;;3.33;2.25;;;24.20;99.90;;;;;;5052737;28;20271;-74
2023/08/12 10:23:02;;;;;;;2.83;2.33;;;24.30;99.90;;;;;;5052464;28;20206;-74
2023/08/12 10:25:33;;;;;;;2.33;2.20;;;24.40;99.90;;;;;;5051003;28;20191;-74
2023/08/12 10:27:58;;;;;;;2.72;2.58;;;24.50;99.90;;;;;;5056009;28;20181;-73
2023/08/12 10:30:27;;;;;;;2.15;2.03;;;24.70;99.90;;;;;;5055035;28;20636;-74
2023/08/12 10:32:53;;;;;;;2.33;2.17;;;24.80;99.90;;;;;;5054209;28;20219;-74
2023/08/12 10:35:18;;;;;;;2.40;2.28;;;25.00;99.90;;;;;;5054674;28;20683;-75
2023/08/12 10:37:49;;;;;;;2.97;2.78;;;25.30;99.90;;;;;;5054343;28;20666;-74
2023/08/12 10:40:22;;;;;;;3.95;2.00;;;25.70;99.90;;;;;;5054995;28;20210;-74
2023/08/12 10:42:49;;;;;;;2.50;2.40;;;26.00;99.90;;;;;;5054204;28;20220;-75
2023/08/12 10:45:17;;;;;;;2.67;2.40;;;25.90;99.90;;;;;;5054483;28;20256;-74
2023/08/12 10:47:44;;;;;;;2.60;2.42;;;25.70;99.90;;;;;;5054237;28;20181;-74
2023/08/12 10:50:20;;;;;;;2.38;2.17;;;25.60;99.90;;;;;;5054504;28;20257;-74
2023/08/12 10:52:47;;;;;;;2.55;2.35;;;25.40;99.90;;;;;;5054383;28;20198;-74
2023/08/12 10:55:23;;;;;;;2.50;2.30;;;25.20;99.90;;;;;;5057317;28;20521;-75
2023/08/12 10:57:50;;;;;;;2.70;2.50;;;25.10;99.90;;;;;;5055899;28;20174;-75
2023/08/12 11:00:21;;;;;;;2.58;2.30;;;25.00;99.90;;;;;;5054593;28;20203;-75
2023/08/12 11:02:51;;;;;;;2.30;2.20;;;24.90;99.90;;;;;;5054465;28;20258;-73
2023/08/12 11:05:19;;;;;;;2.50;2.30;;;24.80;99.90;;;;;;5055170;28;20660;-74
2023/08/12 11:08:00;;;;;;;5.18;2.30;;;24.60;99.90;;;;;;5054960;28;20163;-75
2023/08/12 11:10:27;;;;;;;2.35;2.25;;;24.40;99.90;;;;;;5056250;28;20183;-74
2023/08/12 11:12:56;;;;;;;3.47;2.25;;;24.30;99.90;;;;;;5055878;28;20179;-75
2023/08/12 11:15:36;;;;;;;2.50;2.30;;;24.10;99.90;;;;;;5055069;28;20206;-73
2023/08/12 11:18:04;;;;;;;2.97;2.78;;;24.10;99.90;;;;;;5055263;28;20174;-73
2023/08/12 11:20:30;;;;;;;2.70;2.50;;;23.90;99.90;;;;;;5054541;28;20562;-73
2023/08/12 11:22:58;;;;;;;2.80;2.60;;;23.70;99.90;;;;;;5053016;28;20198;-72
2023/08/12 11:25:24;;;;;;;2.60;2.50;;;23.40;99.90;;;;;;5054189;28;20225;-74
2023/08/12 11:27:50;;;;;;;2.92;2.70;;;23.10;99.90;;;;;;5053525;28;20178;-74
2023/08/12 11:30:18;;;;;;;2.97;2.78;;;22.90;99.90;;;;;;5053555;28;20175;-75
2023/08/12 11:32:45;;;;;;;2.83;2.63;;;22.90;99.90;;;;;;5053134;28;20174;-75
2023/08/12 11:35:13;;;;;;;3.03;2.83;;;23.10;99.90;;;;;;5053345;28;20190;-74
2023/08/12 11:37:40;;;;;;;3.38;3.05;;;23.40;99.90;;;;;;5052109;28;20179;-74
2023/08/12 11:40:11;;;;;;;3.10;2.88;;;23.70;99.90;;;;;;5053296;28;20198;-74
2023/08/12 11:42:38;;;;;;;3.28;2.97;;;24.00;99.90;;;;;;5053170;28;20171;-74
2023/08/12 11:45:05;;;;;;;3.50;2.95;;;24.50;99.90;;;;;;5053175;28;20680;-75
2023/08/12 11:47:31;;;;;;;2.70;2.50;;;24.70;99.90;;;;;;5052921;28;20281;-73
2023/08/12 11:49:57;;;;;;;2.90;2.70;;;25.00;99.90;;;;;;5051680;28;20174;-74
2023/08/12 11:52:23;;;;;;;3.40;3.20;;;25.20;99.90;;;;;;5051575;28;20224;-75
2023/08/12 11:54:50;;;;;;;3.05;2.75;;;25.30;99.90;;;;;;5051786;28;20257;-74
2023/08/12 11:57:16;;;;;;;3.28;2.97;;;25.10;99.90;;;;;;5053123;28;20181;-74
2023/08/12 11:59:42;;;;;;;4.00;2.60;;;25.00;99.90;;;;;;5052609;28;20217;-73
2023/08/12 12:02:09;;;;;;;4.63;3.03;;;24.80;99.90;;;;;;5052707;28;20178;-73
2023/08/12 12:04:35;;;;;;;2.47;2.28;;;24.70;99.90;;;;;;5052488;28;20203;-74
2023/08/12 12:07:06;;;;;;;4.82;2.50;;;24.90;99.90;;;;;;5052656;28;20175;-74
2023/08/12 12:09:32;;;;;;;2.58;2.38;;;25.30;99.90;;;;;;5052757;28;20205;-74
2023/08/12 12:11:57;;;;;;;2.58;2.33;;;25.80;99.90;;;;;;5052393;28;20167;-74
2023/08/12 12:14:25;;;;;;;2.30;2.20;;;26.50;99.90;;;;;;5052721;28;20255;-74
2023/08/12 12:16:51;;;;;;;2.60;2.50;;;27.40;99.90;;;;;;5052717;28;20179;-74
2023/08/12 12:19:21;;;;;;;2.60;2.40;;;27.90;99.90;;;;;;5052774;28;20207;-74
2023/08/12 12:21:49;;;;;;;3.15;2.83;;;28.70;99.90;;;;;;5052360;28;20171;-74
2023/08/12 12:24:15;;;;;;;4.25;2.67;;;29.10;99.90;;;;;;5053253;28;20194;-74
2023/08/12 12:26:41;;;;;;;2.92;2.70;;;29.40;99.90;;;;;;5050162;28;20179;-75
2023/08/12 12:29:07;;;;;;;4.28;2.60;;;29.70;99.90;;;;;;5052858;28;20205;-73
2023/08/12 12:31:35;;;;;;;3.58;3.05;;;29.70;99.90;;;;;;5052444;28;20178;-75